sensor_id;sensor_type;location;lat;lon;timestamp;pressure;altitude;pressure_sealevel;temperature;humidity
68376;BME280;55318;52.068;5.188;2023-03-21T00:01:40;101658.0;;;11.16;100.0
68376;BME280;55318;52.068;5.188;2023-03-21T00:03:16;101651.0;;;11.41;100.0
68376;BME280;55318;52.068;5.188;2023-03-21T00:04:52;101647.0;;;11.42;100.0
68376;BME280;55318;52.068;5.188;2023-03-21T00:06:28;101648.0;;;11.54;100.0
68376;BME280;55318;52.068;5.188;2023-03-21T00:09:41;101648.0;;;11.49;100.0
68376;BME280;55318;52.068;5.188;2023-03-21T00:11:17;101648.0;;;11.43;100.0
68376;BME280;55318;52.068;5.188;2023-03-21T00:12:53;101641.0;;;11.39;100.0
68376;BME280;55318;52.068;5.188;2023-03-21T00:16:07;101641.0;;;11.32;100.0
68376;BME280;55318;52.068;5.188;2023-03-21T00:17:44;101639.0;;;11.35;100.0
68376;BME280;55318;52.068;5.188;2023-03-21T00:19:21;101634.0;;;11.34;100.0
68376;BME280;55318;52.068;5.188;2023-03-21T00:22:35;101636.0;;;11.36;100.0
68376;BME280;55318;52.068;5.188;2023-03-21T00:24:11;101632.0;;;11.39;100.0
68376;BME280;55318;52.068;5.188;2023-03-21T00:25:47;101637.0;;;11.36;100.0
68376;BME280;55318;52.068;5.188;2023-03-21T00:27:23;101635.0;;;11.23;100.0
68376;BME280;55318;52.068;5.188;2023-03-21T00:30:35;101630.0;;;11.27;100.0
68376;BME280;55318;52.068;5.188;2023-03-21T00:32:15;101633.0;;;11.23;100.0
68376;BME280;55318;52.068;5.188;2023-03-21T00:33:51;101631.0;;;11.3;100.0
68376;BME280;55318;52.068;5.188;2023-03-21T00:37:03;101630.0;;;11.25;100.0
68376;BME280;55318;52.068;5.188;2023-03-21T00:38:39;101630.0;;;11.34;100.0
68376;BME280;55318;52.068;5.188;2023-03-21T00:40:16;101626.0;;;11.23;100.0
68376;BME280;55318;52.068;5.188;2023-03-21T00:43:28;101627.0;;;11.26;100.0
68376;BME280;55318;52.068;5.188;2023-03-21T00:45:04;101624.0;;;11.3;100.0
68376;BME280;55318;52.068;5.188;2023-03-21T00:46:41;101625.0;;;11.42;100.0
68376;BME280;55318;52.068;5.188;2023-03-21T00:48:17;101623.0;;;11.42;100.0
68376;BME280;55318;52.068;5.188;2023-03-21T00:51:30;101618.0;;;11.48;100.0
68376;BME280;55318;52.068;5.188;2023-03-21T00:53:06;101618.0;;;11.39;100.0
68376;BME280;55318;52.068;5.188;2023-03-21T00:54:43;101616.0;;;11.5;100.0
68376;BME280;55318;52.068;5.188;2023-03-21T00:57:55;101613.0;;;11.44;100.0
68376;BME280;55318;52.068;5.188;2023-03-21T00:59:31;101612.0;;;11.65;100.0
68376;BME280;55318;52.068;5.188;2023-03-21T01:01:07;101606.0;;;11.5;100.0
68376;BME280;55318;52.068;5.188;2023-03-21T01:04:20;101606.0;;;11.48;100.0
68376;BME280;55318;52.068;5.188;2023-03-21T01:05:58;101602.0;;;11.47;100.0
68376;BME280;55318;52.068;5.188;2023-03-21T01:07:34;101602.0;;;11.46;100.0
68376;BME280;55318;52.068;5.188;2023-03-21T01:10:50;101595.0;;;11.38;100.0
68376;BME280;55318;52.068;5.188;2023-03-21T01:12:26;101601.0;;;11.44;100.0
68376;BME280;55318;52.068;5.188;2023-03-21T01:14:02;101594.0;;;11.33;100.0
68376;BME280;55318;52.068;5.188;2023-03-21T01:15:42;101590.0;;;11.4;100.0
68376;BME280;55318;52.068;5.188;2023-03-21T01:18:56;101590.0;;;11.42;100.0
68376;BME280;55318;52.068;5.188;2023-03-21T01:20:33;101585.0;;;11.17;100.0
68376;BME280;55318;52.068;5.188;2023-03-21T01:22:09;101585.0;;;11.19;100.0
68376;BME280;55318;52.068;5.188;2023-03-21T01:25:23;101586.0;;;11.31;100.0
68376;BME280;55318;52.068;5.188;2023-03-21T01:27:01;101591.0;;;11.57;100.0
68376;BME280;55318;52.068;5.188;2023-03-21T01:28:39;101590.0;;;11.5;100.0
68376;BME280;55318;52.068;5.188;2023-03-21T01:30:17;101583.0;;;11.43;100.0
68376;BME280;55318;52.068;5.188;2023-03-21T01:33:30;101586.0;;;11.36;100.0
68376;BME280;55318;52.068;5.188;2023-03-21T01:35:07;101582.0;;;11.37;100.0
68376;BME280;55318;52.068;5.188;2023-03-21T01:36:44;101584.0;;;11.43;100.0
68376;BME280;55318;52.068;5.188;2023-03-21T01:39:56;101577.0;;;11.33;100.0
68376;BME280;55318;52.068;5.188;2023-03-21T01:41:34;101573.0;;;11.41;100.0
68376;BME280;55318;52.068;5.188;2023-03-21T01:43:21;101570.0;;;11.44;100.0
68376;BME280;55318;52.068;5.188;2023-03-21T01:45:00;101567.0;;;11.47;100.0
68376;BME280;55318;52.068;5.188;2023-03-21T01:48:17;101564.0;;;11.53;100.0
68376;BME280;55318;52.068;5.188;2023-03-21T01:49:55;101563.0;;;11.35;100.0
68376;BME280;55318;52.068;5.188;2023-03-21T01:51:37;101561.0;;;11.32;100.0
68376;BME280;55318;52.068;5.188;2023-03-21T01:53:18;101562.0;;;11.32;100.0
68376;BME280;55318;52.068;5.188;2023-03-21T01:56:35;101558.0;;;11.46;100.0
68376;BME280;55318;52.068;5.188;2023-03-21T01:58:14;101557.0;;;11.49;100.0
68376;BME280;55318;52.068;5.188;2023-03-21T01:59:53;101553.0;;;11.44;100.0
68376;BME280;55318;52.068;5.188;2023-03-21T02:01:30;101548.0;;;11.46;100.0
68376;BME280;55318;52.068;5.188;2023-03-21T02:04:45;101544.0;;;11.37;100.0
68376;BME280;55318;52.068;5.188;2023-03-21T02:06:26;101539.0;;;11.44;100.0
68376;BME280;55318;52.068;5.188;2023-03-21T02:08:06;101544.0;;;11.33;100.0
68376;BME280;55318;52.068;5.188;2023-03-21T02:11:21;101537.0;;;11.37;100.0
68376;BME280;55318;52.068;5.188;2023-03-21T02:12:59;101535.0;;;11.42;100.0
68376;BME280;55318;52.068;5.188;2023-03-21T02:14:38;101532.0;;;11.37;100.0
68376;BME280;55318;52.068;5.188;2023-03-21T02:16:20;101530.0;;;11.41;100.0
68376;BME280;55318;52.068;5.188;2023-03-21T02:21:23;101525.0;;;11.38;100.0
68376;BME280;55318;52.068;5.188;2023-03-21T02:28:07;101518.0;;;11.38;100.0
68376;BME280;55318;52.068;5.188;2023-03-21T02:37:04;101512.0;;;11.38;100.0
68376;BME280;55318;52.068;5.188;2023-03-21T02:38:53;101516.0;;;11.35;100.0
68376;BME280;55318;52.068;5.188;2023-03-21T02:40:33;101510.0;;;11.37;100.0
68376;BME280;55318;52.068;5.188;2023-03-21T02:42:18;101511.0;;;11.32;100.0
68376;BME280;55318;52.068;5.188;2023-03-21T02:44:00;101505.0;;;11.35;100.0
68376;BME280;55318;52.068;5.188;2023-03-21T02:45:45;101502.0;;;11.5;100.0
68376;BME280;55318;52.068;5.188;2023-03-21T02:49:11;101500.0;;;11.4;100.0
68376;BME280;55318;52.068;5.188;2023-03-21T02:50:53;101503.0;;;11.4;100.0
68376;BME280;55318;52.068;5.188;2023-03-21T02:52:34;101498.0;;;11.3;100.0
68376;BME280;55318;52.068;5.188;2023-03-21T02:54:14;101498.0;;;11.37;100.0
68376;BME280;55318;52.068;5.188;2023-03-21T02:59:06;101496.0;;;11.37;100.0
68376;BME280;55318;52.068;5.188;2023-03-21T03:00:45;101496.0;;;11.4;100.0
68376;BME280;55318;52.068;5.188;2023-03-21T03:02:26;101495.0;;;11.21;100.0
68376;BME280;55318;52.068;5.188;2023-03-21T03:05:42;101493.0;;;11.23;100.0
68376;BME280;55318;52.068;5.188;2023-03-21T03:07:30;101496.0;;;11.23;100.0
68376;BME280;55318;52.068;5.188;2023-03-21T03:09:25;101492.0;;;11.16;100.0
68376;BME280;55318;52.068;5.188;2023-03-21T03:11:13;101492.0;;;11.12;100.0
68376;BME280;55318;52.068;5.188;2023-03-21T03:13:05;101495.0;;;11.21;100.0
68376;BME280;55318;52.068;5.188;2023-03-21T03:14:52;101497.0;;;11.16;100.0
68376;BME280;55318;52.068;5.188;2023-03-21T03:18:26;101498.0;;;11.26;100.0
68376;BME280;55318;52.068;5.188;2023-03-21T03:20:19;101497.0;;;11.17;100.0
68376;BME280;55318;52.068;5.188;2023-03-21T03:22:05;101495.0;;;11.1;100.0
68376;BME280;55318;52.068;5.188;2023-03-21T03:23:47;101497.0;;;11.13;100.0
68376;BME280;55318;52.068;5.188;2023-03-21T03:25:28;101491.0;;;11.22;100.0
68376;BME280;55318;52.068;5.188;2023-03-21T03:28:51;101494.0;;;11.09;100.0
68376;BME280;55318;52.068;5.188;2023-03-21T03:30:29;101488.0;;;10.99;100.0
68376;BME280;55318;52.068;5.188;2023-03-21T03:32:09;101488.0;;;11.16;100.0
68376;BME280;55318;52.068;5.188;2023-03-21T03:33:48;101487.0;;;11.11;100.0
68376;BME280;55318;52.068;5.188;2023-03-21T03:37:07;101488.0;;;11.29;100.0
68376;BME280;55318;52.068;5.188;2023-03-21T03:38:47;101487.0;;;11.3;100.0
68376;BME280;55318;52.068;5.188;2023-03-21T03:40:28;101482.0;;;11.32;100.0
68376;BME280;55318;52.068;5.188;2023-03-21T03:42:08;101485.0;;;11.27;100.0
68376;BME280;55318;52.068;5.188;2023-03-21T03:45:33;101486.0;;;11.34;100.0
68376;BME280;55318;52.068;5.188;2023-03-21T03:47:20;101482.0;;;11.39;100.0
68376;BME280;55318;52.068;5.188;2023-03-21T03:49:01;101483.0;;;11.36;100.0
68376;BME280;55318;52.068;5.188;2023-03-21T03:50:42;101478.0;;;11.33;100.0
68376;BME280;55318;52.068;5.188;2023-03-21T03:52:26;101478.0;;;11.35;100.0
68376;BME280;55318;52.068;5.188;2023-03-21T03:55:48;101474.0;;;11.36;100.0
68376;BME280;55318;52.068;5.188;2023-03-21T03:57:26;101476.0;;;11.3;100.0
68376;BME280;55318;52.068;5.188;2023-03-21T03:59:03;101474.0;;;11.26;100.0
68376;BME280;55318;52.068;5.188;2023-03-21T04:02:16;101473.0;;;11.27;100.0
68376;BME280;55318;52.068;5.188;2023-03-21T04:03:52;101470.0;;;11.39;100.0
68376;BME280;55318;52.068;5.188;2023-03-21T04:05:28;101472.0;;;11.29;100.0
68376;BME280;55318;52.068;5.188;2023-03-21T04:07:04;101472.0;;;11.38;100.0
68376;BME280;55318;52.068;5.188;2023-03-21T04:10:18;101471.0;;;11.36;100.0
68376;BME280;55318;52.068;5.188;2023-03-21T04:11:55;101465.0;;;11.37;100.0
68376;BME280;55318;52.068;5.188;2023-03-21T04:13:33;101467.0;;;11.43;100.0
68376;BME280;55318;52.068;5.188;2023-03-21T04:16:46;101463.0;;;11.38;100.0
68376;BME280;55318;52.068;5.188;2023-03-21T04:18:23;101465.0;;;11.35;100.0
68376;BME280;55318;52.068;5.188;2023-03-21T04:19:59;101458.0;;;11.35;100.0
68376;BME280;55318;52.068;5.188;2023-03-21T04:23:12;101457.0;;;11.36;100.0
68376;BME280;55318;52.068;5.188;2023-03-21T04:24:47;101455.0;;;11.33;100.0
68376;BME280;55318;52.068;5.188;2023-03-21T04:26:24;101455.0;;;11.34;100.0
68376;BME280;55318;52.068;5.188;2023-03-21T04:28:00;101453.0;;;11.44;99.71
68376;BME280;55318;52.068;5.188;2023-03-21T04:31:12;101453.0;;;11.53;99.45
68376;BME280;55318;52.068;5.188;2023-03-21T04:32:48;101452.0;;;11.49;99.38
68376;BME280;55318;52.068;5.188;2023-03-21T04:34:24;101452.0;;;11.49;99.05
68376;BME280;55318;52.068;5.188;2023-03-21T04:37:37;101451.0;;;11.66;98.37
68376;BME280;55318;52.068;5.188;2023-03-21T04:39:13;101453.0;;;11.52;98.36
68376;BME280;55318;52.068;5.188;2023-03-21T04:40:50;101455.0;;;11.22;99.82
68376;BME280;55318;52.068;5.188;2023-03-21T04:44:02;101453.0;;;11.3;99.27
68376;BME280;55318;52.068;5.188;2023-03-21T04:45:38;101455.0;;;11.2;99.59
68376;BME280;55318;52.068;5.188;2023-03-21T04:47:15;101449.0;;;11.34;99.19
68376;BME280;55318;52.068;5.188;2023-03-21T04:48:52;101448.0;;;11.31;99.12
68376;BME280;55318;52.068;5.188;2023-03-21T04:52:05;101444.0;;;11.28;99.33
68376;BME280;55318;52.068;5.188;2023-03-21T04:53:41;101450.0;;;11.2;99.4
68376;BME280;55318;52.068;5.188;2023-03-21T04:55:17;101449.0;;;11.23;99.41
68376;BME280;55318;52.068;5.188;2023-03-21T04:58:29;101448.0;;;11.19;99.04
68376;BME280;55318;52.068;5.188;2023-03-21T05:00:07;101449.0;;;11.22;99.2
68376;BME280;55318;52.068;5.188;2023-03-21T05:01:46;101450.0;;;11.23;99.43
68376;BME280;55318;52.068;5.188;2023-03-21T05:04:58;101448.0;;;11.18;99.23
68376;BME280;55318;52.068;5.188;2023-03-21T05:06:34;101439.0;;;11.27;98.96
68376;BME280;55318;52.068;5.188;2023-03-21T05:08:11;101434.0;;;11.21;99.5
68376;BME280;55318;52.068;5.188;2023-03-21T05:09:48;101433.0;;;11.26;99.15
68376;BME280;55318;52.068;5.188;2023-03-21T05:13:02;101428.0;;;11.3;98.66
68376;BME280;55318;52.068;5.188;2023-03-21T05:14:38;101425.0;;;11.29;98.62
68376;BME280;55318;52.068;5.188;2023-03-21T05:16:14;101425.0;;;11.34;98.11
68376;BME280;55318;52.068;5.188;2023-03-21T05:19:29;101424.0;;;11.39;97.66
68376;BME280;55318;52.068;5.188;2023-03-21T05:21:05;101427.0;;;11.37;97.59
68376;BME280;55318;52.068;5.188;2023-03-21T05:22:41;101424.0;;;11.38;97.58
68376;BME280;55318;52.068;5.188;2023-03-21T05:25:57;101422.0;;;11.3;97.65
68376;BME280;55318;52.068;5.188;2023-03-21T05:27:34;101422.0;;;11.27;98.02
68376;BME280;55318;52.068;5.188;2023-03-21T05:29:10;101418.0;;;11.19;98.33
68376;BME280;55318;52.068;5.188;2023-03-21T05:30:46;101421.0;;;11.26;98.46
68376;BME280;55318;52.068;5.188;2023-03-21T05:33:59;101424.0;;;11.1;98.63
68376;BME280;55318;52.068;5.188;2023-03-21T05:35:36;101423.0;;;11.17;98.59
68376;BME280;55318;52.068;5.188;2023-03-21T05:37:12;101415.0;;;11.23;98.33
68376;BME280;55318;52.068;5.188;2023-03-21T05:40:25;101422.0;;;11.13;98.62
68376;BME280;55318;52.068;5.188;2023-03-21T05:42:01;101418.0;;;11.13;98.65
68376;BME280;55318;52.068;5.188;2023-03-21T05:43:37;101413.0;;;11.05;98.75
68376;BME280;55318;52.068;5.188;2023-03-21T05:46:50;101415.0;;;10.97;99.31
68376;BME280;55318;52.068;5.188;2023-03-21T05:48:27;101412.0;;;11.14;98.65
68376;BME280;55318;52.068;5.188;2023-03-21T05:50:04;101411.0;;;11.04;98.74
68376;BME280;55318;52.068;5.188;2023-03-21T05:51:40;101415.0;;;10.95;99.39
68376;BME280;55318;52.068;5.188;2023-03-21T05:54:52;101413.0;;;10.89;99.91
68376;BME280;55318;52.068;5.188;2023-03-21T05:56:28;101416.0;;;10.92;99.84
68376;BME280;55318;52.068;5.188;2023-03-21T05:58:04;101413.0;;;10.98;99.66
68376;BME280;55318;52.068;5.188;2023-03-21T06:01:16;101415.0;;;10.9;99.99
68376;BME280;55318;52.068;5.188;2023-03-21T06:02:52;101413.0;;;11.07;99.45
68376;BME280;55318;52.068;5.188;2023-03-21T06:04:28;101414.0;;;11.08;99.0
68376;BME280;55318;52.068;5.188;2023-03-21T06:07:41;101412.0;;;11.21;98.37
68376;BME280;55318;52.068;5.188;2023-03-21T06:09:17;101415.0;;;11.35;97.69
68376;BME280;55318;52.068;5.188;2023-03-21T06:10:53;101411.0;;;11.3;97.65
68376;BME280;55318;52.068;5.188;2023-03-21T06:14:05;101410.0;;;11.17;97.64
68376;BME280;55318;52.068;5.188;2023-03-21T06:15:41;101413.0;;;11.26;97.76
68376;BME280;55318;52.068;5.188;2023-03-21T06:17:18;101414.0;;;11.15;97.63
68376;BME280;55318;52.068;5.188;2023-03-21T06:18:55;101414.0;;;11.18;97.32
68376;BME280;55318;52.068;5.188;2023-03-21T06:22:07;101409.0;;;11.38;97.04
68376;BME280;55318;52.068;5.188;2023-03-21T06:23:43;101410.0;;;11.4;96.71
68376;BME280;55318;52.068;5.188;2023-03-21T06:25:19;101412.0;;;11.45;96.31
68376;BME280;55318;52.068;5.188;2023-03-21T06:28:32;101413.0;;;11.45;96.5
68376;BME280;55318;52.068;5.188;2023-03-21T06:30:11;101415.0;;;11.58;95.95
68376;BME280;55318;52.068;5.188;2023-03-21T06:31:47;101415.0;;;11.46;96.32
68376;BME280;55318;52.068;5.188;2023-03-21T06:34:59;101415.0;;;11.47;96.38
68376;BME280;55318;52.068;5.188;2023-03-21T06:36:35;101414.0;;;11.54;96.0
68376;BME280;55318;52.068;5.188;2023-03-21T06:38:11;101417.0;;;11.44;95.76
68376;BME280;55318;52.068;5.188;2023-03-21T06:39:48;101419.0;;;11.38;96.39
68376;BME280;55318;52.068;5.188;2023-03-21T06:43:00;101420.0;;;11.33;96.75
68376;BME280;55318;52.068;5.188;2023-03-21T06:44:36;101421.0;;;11.36;96.6
68376;BME280;55318;52.068;5.188;2023-03-21T06:46:12;101420.0;;;11.33;96.96
68376;BME280;55318;52.068;5.188;2023-03-21T06:49:24;101417.0;;;11.3;97.05
68376;BME280;55318;52.068;5.188;2023-03-21T06:51:00;101419.0;;;11.25;97.2
68376;BME280;55318;52.068;5.188;2023-03-21T06:52:37;101416.0;;;11.36;96.72
68376;BME280;55318;52.068;5.188;2023-03-21T06:55:49;101420.0;;;11.33;97.45
68376;BME280;55318;52.068;5.188;2023-03-21T06:57:26;101418.0;;;11.29;96.71
68376;BME280;55318;52.068;5.188;2023-03-21T06:59:02;101421.0;;;11.38;96.59
68376;BME280;55318;52.068;5.188;2023-03-21T07:00:38;101424.0;;;11.49;96.48
68376;BME280;55318;52.068;5.188;2023-03-21T07:03:51;101428.0;;;11.52;96.15
68376;BME280;55318;52.068;5.188;2023-03-21T07:05:27;101420.0;;;11.5;96.27
68376;BME280;55318;52.068;5.188;2023-03-21T07:07:03;101428.0;;;11.67;95.83
68376;BME280;55318;52.068;5.188;2023-03-21T07:10:17;101427.0;;;11.67;95.98
68376;BME280;55318;52.068;5.188;2023-03-21T07:11:52;101431.0;;;11.62;95.87
68376;BME280;55318;52.068;5.188;2023-03-21T07:13:29;101435.0;;;11.67;95.84
68376;BME280;55318;52.068;5.188;2023-03-21T07:16:44;101434.0;;;11.64;95.66
68376;BME280;55318;52.068;5.188;2023-03-21T07:18:21;101428.0;;;11.53;96.47
68376;BME280;55318;52.068;5.188;2023-03-21T07:19:57;101427.0;;;11.32;96.32
68376;BME280;55318;52.068;5.188;2023-03-21T07:21:34;101430.0;;;11.58;95.73
68376;BME280;55318;52.068;5.188;2023-03-21T07:24:46;101434.0;;;11.63;95.47
68376;BME280;55318;52.068;5.188;2023-03-21T07:26:23;101430.0;;;11.44;96.39
68376;BME280;55318;52.068;5.188;2023-03-21T07:27:59;101428.0;;;11.59;96.02
68376;BME280;55318;52.068;5.188;2023-03-21T07:31:14;101427.0;;;11.58;96.06
68376;BME280;55318;52.068;5.188;2023-03-21T07:32:50;101426.0;;;11.49;96.78
68376;BME280;55318;52.068;5.188;2023-03-21T07:34:27;101421.0;;;11.57;96.17
68376;BME280;55318;52.068;5.188;2023-03-21T07:37:47;101415.0;;;11.65;96.19
68376;BME280;55318;52.068;5.188;2023-03-21T07:39:23;101413.0;;;11.62;96.38
68376;BME280;55318;52.068;5.188;2023-03-21T07:40:59;101407.0;;;11.57;96.79
68376;BME280;55318;52.068;5.188;2023-03-21T07:42:35;101397.0;;;11.7;96.26
68376;BME280;55318;52.068;5.188;2023-03-21T07:45:47;101391.0;;;11.69;96.18
68376;BME280;55318;52.068;5.188;2023-03-21T07:47:24;101392.0;;;11.73;95.53
68376;BME280;55318;52.068;5.188;2023-03-21T07:49:00;101394.0;;;11.75;95.82
68376;BME280;55318;52.068;5.188;2023-03-21T07:52:12;101391.0;;;11.83;95.36
68376;BME280;55318;52.068;5.188;2023-03-21T07:53:48;101394.0;;;11.72;96.15
68376;BME280;55318;52.068;5.188;2023-03-21T07:55:24;101391.0;;;11.69;96.12
68376;BME280;55318;52.068;5.188;2023-03-21T07:58:37;101396.0;;;11.74;96.17
68376;BME280;55318;52.068;5.188;2023-03-21T08:00:14;101393.0;;;11.9;95.77
68376;BME280;55318;52.068;5.188;2023-03-21T08:01:50;101397.0;;;11.91;95.44
68376;BME280;55318;52.068;5.188;2023-03-21T08:03:26;101401.0;;;11.86;95.63
68376;BME280;55318;52.068;5.188;2023-03-21T08:06:40;101399.0;;;11.61;96.54
68376;BME280;55318;52.068;5.188;2023-03-21T08:08:16;101393.0;;;11.61;96.8
68376;BME280;55318;52.068;5.188;2023-03-21T08:09:52;101391.0;;;11.79;96.87
68376;BME280;55318;52.068;5.188;2023-03-21T08:13:05;101387.0;;;11.64;97.65
68376;BME280;55318;52.068;5.188;2023-03-21T08:14:41;101391.0;;;11.52;98.49
68376;BME280;55318;52.068;5.188;2023-03-21T08:16:17;101387.0;;;11.84;97.34
68376;BME280;55318;52.068;5.188;2023-03-21T08:19:29;101388.0;;;11.73;97.06
68376;BME280;55318;52.068;5.188;2023-03-21T08:21:06;101385.0;;;11.8;97.03
68376;BME280;55318;52.068;5.188;2023-03-21T08:22:42;101385.0;;;11.8;97.2
68376;BME280;55318;52.068;5.188;2023-03-21T08:25:55;101383.0;;;11.7;97.02
68376;BME280;55318;52.068;5.188;2023-03-21T08:27:33;101384.0;;;11.82;96.84
68376;BME280;55318;52.068;5.188;2023-03-21T08:29:09;101384.0;;;11.67;96.83
68376;BME280;55318;52.068;5.188;2023-03-21T08:30:45;101380.0;;;11.77;96.9
68376;BME280;55318;52.068;5.188;2023-03-21T08:33:58;101383.0;;;11.79;97.01
68376;BME280;55318;52.068;5.188;2023-03-21T08:35:34;101381.0;;;11.85;96.9
68376;BME280;55318;52.068;5.188;2023-03-21T08:37:10;101371.0;;;11.77;95.99
68376;BME280;55318;52.068;5.188;2023-03-21T08:40:22;101363.0;;;11.67;97.08
68376;BME280;55318;52.068;5.188;2023-03-21T08:41:58;101362.0;;;11.87;96.61
68376;BME280;55318;52.068;5.188;2023-03-21T08:43:34;101359.0;;;11.7;95.99
68376;BME280;55318;52.068;5.188;2023-03-21T08:46:49;101358.0;;;11.86;95.76
68376;BME280;55318;52.068;5.188;2023-03-21T08:48:25;101357.0;;;11.91;95.16
68376;BME280;55318;52.068;5.188;2023-03-21T08:50:01;101359.0;;;11.87;94.86
68376;BME280;55318;52.068;5.188;2023-03-21T08:51:38;101352.0;;;11.94;94.42
68376;BME280;55318;52.068;5.188;2023-03-21T08:54:51;101355.0;;;12.01;94.95
68376;BME280;55318;52.068;5.188;2023-03-21T08:56:27;101348.0;;;11.84;95.05
68376;BME280;55318;52.068;5.188;2023-03-21T08:58:03;101345.0;;;11.85;95.56
68376;BME280;55318;52.068;5.188;2023-03-21T09:01:16;101337.0;;;11.46;95.48
68376;BME280;55318;52.068;5.188;2023-03-21T09:02:52;101342.0;;;11.53;96.01
68376;BME280;55318;52.068;5.188;2023-03-21T09:04:29;101344.0;;;11.54;96.2
68376;BME280;55318;52.068;5.188;2023-03-21T09:07:41;101340.0;;;11.54;97.14
68376;BME280;55318;52.068;5.188;2023-03-21T09:09:18;101337.0;;;11.6;96.41
68376;BME280;55318;52.068;5.188;2023-03-21T09:10:55;101337.0;;;11.66;96.33
68376;BME280;55318;52.068;5.188;2023-03-21T09:12:31;101336.0;;;11.59;96.2
68376;BME280;55318;52.068;5.188;2023-03-21T09:17:21;101330.0;;;11.53;96.2
68376;BME280;55318;52.068;5.188;2023-03-21T09:18:57;101327.0;;;11.52;96.13
68376;BME280;55318;52.068;5.188;2023-03-21T09:22:10;101318.0;;;11.55;95.5
68376;BME280;55318;52.068;5.188;2023-03-21T09:23:46;101319.0;;;11.53;95.59
68376;BME280;55318;52.068;5.188;2023-03-21T09:25:23;101318.0;;;11.62;96.42
68376;BME280;55318;52.068;5.188;2023-03-21T09:28:36;101315.0;;;11.68;96.53
68376;BME280;55318;52.068;5.188;2023-03-21T09:30:13;101309.0;;;11.6;96.67
68376;BME280;55318;52.068;5.188;2023-03-21T09:31:51;101312.0;;;11.63;96.96
68376;BME280;55318;52.068;5.188;2023-03-21T09:33:27;101303.0;;;11.78;96.97
68376;BME280;55318;52.068;5.188;2023-03-21T09:36:41;101303.0;;;11.61;97.2
68376;BME280;55318;52.068;5.188;2023-03-21T09:38:17;101301.0;;;11.81;97.23
68376;BME280;55318;52.068;5.188;2023-03-21T09:39:54;101303.0;;;11.67;97.11
68376;BME280;55318;52.068;5.188;2023-03-21T09:43:31;101305.0;;;11.77;96.95
68376;BME280;55318;52.068;5.188;2023-03-21T09:45:18;101303.0;;;11.85;96.74
68376;BME280;55318;52.068;5.188;2023-03-21T09:47:02;101315.0;;;11.85;96.56
68376;BME280;55318;52.068;5.188;2023-03-21T09:48:55;101297.0;;;11.98;95.67
68376;BME280;55318;52.068;5.188;2023-03-21T09:50:33;101305.0;;;11.98;95.13
68376;BME280;55318;52.068;5.188;2023-03-21T09:52:18;101305.0;;;11.92;95.05
68376;BME280;55318;52.068;5.188;2023-03-21T09:55:39;101302.0;;;11.99;94.91
68376;BME280;55318;52.068;5.188;2023-03-21T09:57:25;101302.0;;;12.07;94.37
68376;BME280;55318;52.068;5.188;2023-03-21T09:59:06;101299.0;;;12.09;93.21
68376;BME280;55318;52.068;5.188;2023-03-21T10:00:48;101306.0;;;12.23;93.46
68376;BME280;55318;52.068;5.188;2023-03-21T10:04:14;101307.0;;;12.13;93.13
68376;BME280;55318;52.068;5.188;2023-03-21T10:05:52;101309.0;;;12.35;93.56
68376;BME280;55318;52.068;5.188;2023-03-21T10:07:30;101310.0;;;12.41;94.0
68376;BME280;55318;52.068;5.188;2023-03-21T10:09:16;101306.0;;;12.43;92.92
68376;BME280;55318;52.068;5.188;2023-03-21T10:12:37;101308.0;;;12.44;92.38
68376;BME280;55318;52.068;5.188;2023-03-21T10:14:17;101308.0;;;12.5;92.14
68376;BME280;55318;52.068;5.188;2023-03-21T10:15:56;101301.0;;;12.59;92.46
68376;BME280;55318;52.068;5.188;2023-03-21T10:17:35;101309.0;;;12.53;91.03
68376;BME280;55318;52.068;5.188;2023-03-21T10:20:53;101301.0;;;12.59;90.21
68376;BME280;55318;52.068;5.188;2023-03-21T10:22:30;101302.0;;;12.71;90.45
68376;BME280;55318;52.068;5.188;2023-03-21T10:24:09;101305.0;;;12.82;89.41
68376;BME280;55318;52.068;5.188;2023-03-21T10:25:49;101296.0;;;12.82;89.56
68376;BME280;55318;52.068;5.188;2023-03-21T10:29:09;101297.0;;;12.78;89.36
68376;BME280;55318;52.068;5.188;2023-03-21T10:30:50;101293.0;;;12.66;89.04
68376;BME280;55318;52.068;5.188;2023-03-21T10:32:27;101289.0;;;12.75;89.28
68376;BME280;55318;52.068;5.188;2023-03-21T10:34:15;101286.0;;;12.78;88.74
68376;BME280;55318;52.068;5.188;2023-03-21T10:37:33;101280.0;;;12.79;88.42
68376;BME280;55318;52.068;5.188;2023-03-21T10:39:19;101280.0;;;12.89;87.64
68376;BME280;55318;52.068;5.188;2023-03-21T10:40:57;101280.0;;;12.94;88.08
68376;BME280;55318;52.068;5.188;2023-03-21T10:42:34;101276.0;;;12.94;87.89
68376;BME280;55318;52.068;5.188;2023-03-21T10:45:49;101277.0;;;13.04;87.19
68376;BME280;55318;52.068;5.188;2023-03-21T10:47:29;101285.0;;;13.16;87.83
68376;BME280;55318;52.068;5.188;2023-03-21T10:49:06;101288.0;;;13.22;87.21
68376;BME280;55318;52.068;5.188;2023-03-21T10:52:26;101289.0;;;13.25;86.03
68376;BME280;55318;52.068;5.188;2023-03-21T10:54:06;101281.0;;;13.11;85.72
68376;BME280;55318;52.068;5.188;2023-03-21T10:55:46;101286.0;;;13.11;85.14
68376;BME280;55318;52.068;5.188;2023-03-21T10:57:26;101283.0;;;13.19;85.79
68376;BME280;55318;52.068;5.188;2023-03-21T11:00:42;101287.0;;;13.13;86.23
68376;BME280;55318;52.068;5.188;2023-03-21T11:02:23;101285.0;;;13.23;85.62
68376;BME280;55318;52.068;5.188;2023-03-21T11:04:06;101294.0;;;13.26;85.71
68376;BME280;55318;52.068;5.188;2023-03-21T11:05:44;101294.0;;;13.29;84.44
68376;BME280;55318;52.068;5.188;2023-03-21T11:09:00;101292.0;;;13.27;85.1
68376;BME280;55318;52.068;5.188;2023-03-21T11:10:51;101293.0;;;13.5;84.91
68376;BME280;55318;52.068;5.188;2023-03-21T11:12:32;101296.0;;;13.56;85.36
68376;BME280;55318;52.068;5.188;2023-03-21T11:14:26;101296.0;;;13.56;85.47
68376;BME280;55318;52.068;5.188;2023-03-21T11:16:09;101290.0;;;13.53;85.1
68376;BME280;55318;52.068;5.188;2023-03-21T11:19:29;101287.0;;;13.6;84.32
68376;BME280;55318;52.068;5.188;2023-03-21T11:21:07;101286.0;;;13.41;82.9
68376;BME280;55318;52.068;5.188;2023-03-21T11:22:46;101290.0;;;13.5;84.1